Time;durP1;ratioP1;P1;durP2;ratioP2;P2;SDS_P1;SDS_P2;PMS_P1;PMS_P2;Temp;Humidity;BMP_temperature;BMP_pressure;BME280_temperature;BME280_humidity;BME280_pressure;Samples;Min_cycle;Max_cycle;Signal;HPM_P1;HPM_P2
2021/09/15 00:00:15;;;;;;;17.50;13.20;;;;;;;13.14;82.83;96926.27;113925;1200;50899;-81
2021/09/15 00:03:06;;;;;;;17.90;13.30;;;;;;;13.21;82.69;96928.59;113873;1212;27397;-82
2021/09/15 00:05:37;;;;;;;16.70;13.50;;;;;;;13.26;82.46;96924.34;113907;1206;46483;-81
2021/09/15 00:08:09;;;;;;;18.10;13.30;;;;;;;13.29;82.32;96927.96;113879;1205;31216;-82
2021/09/15 00:10:40;;;;;;;18.90;12.80;;;;;;;13.32;82.23;96928.92;113906;1205;26351;-82
2021/09/15 00:13:11;;;;;;;15.60;11.60;;;;;;;13.37;82.25;96926.58;113931;1205;25776;-82
2021/09/15 00:15:42;;;;;;;14.40;11.10;;;;;;;13.31;81.68;96920.64;113953;1205;30216;-82
2021/09/15 00:18:13;;;;;;;14.20;11.90;;;;;;;13.19;81.90;96923.98;114036;1205;28631;-82
2021/09/15 00:20:46;;;;;;;16.80;12.50;;;;;;;13.14;82.42;96923.45;113900;1205;27895;-81
2021/09/15 00:23:17;;;;;;;18.00;12.80;;;;;;;13.11;82.69;96921.52;113883;1206;28394;-80
2021/09/15 00:25:47;;;;;;;16.20;12.80;;;;;;;13.10;83.04;96925.80;113889;1205;31964;-81
2021/09/15 00:28:18;;;;;;;18.20;12.60;;;;;;;13.04;82.99;96924.90;113916;1204;23224;-80
2021/09/15 00:30:49;;;;;;;17.50;13.40;;;;;;;12.97;82.77;96925.59;113936;1211;24300;-82
2021/09/15 00:33:20;;;;;;;19.30;13.10;;;;;;;12.95;83.20;96921.88;113902;1205;23377;-82
2021/09/15 00:35:51;;;;;;;17.60;13.50;;;;;;;12.95;83.44;96923.85;113933;1205;23649;-80
2021/09/15 00:38:22;;;;;;;17.20;13.70;;;;;;;12.99;83.97;96919.92;113897;1204;30932;-82
2021/09/15 00:40:53;;;;;;;16.10;13.10;;;;;;;13.03;84.04;96918.64;113963;1205;28428;-81
2021/09/15 00:43:24;;;;;;;15.80;12.60;;;;;;;13.04;84.11;96916.75;113941;1200;29907;-82
2021/09/15 00:45:57;;;;;;;16.60;12.90;;;;;;;13.01;84.22;96917.11;113928;1207;30389;-82
2021/09/15 00:48:28;;;;;;;15.80;12.50;;;;;;;12.93;84.28;96915.45;113886;1206;29348;-80
2021/09/15 00:50:59;;;;;;;14.60;11.60;;;;;;;12.89;84.42;96920.20;113903;1205;29096;-82
2021/09/15 00:53:30;;;;;;;16.60;12.90;;;;;;;12.86;84.81;96919.71;113865;1210;29812;-81
2021/09/15 00:56:01;;;;;;;18.30;14.50;;;;;;;12.97;85.01;96923.55;113914;1207;24650;-82
2021/09/15 00:58:32;;;;;;;18.50;13.50;;;;;;;13.13;85.08;96925.70;113866;1206;30704;-81
2021/09/15 01:01:03;;;;;;;19.10;13.90;;;;;;;13.28;84.90;96924.80;113872;1204;29609;-82
2021/09/15 01:03:34;;;;;;;16.40;13.50;;;;;;;13.39;84.71;96924.58;113871;1205;31163;-81
2021/09/15 01:06:05;;;;;;;17.70;14.20;;;;;;;13.43;84.31;96925.23;113937;1206;26239;-79
2021/09/15 01:08:36;;;;;;;16.60;13.20;;;;;;;13.45;84.41;96921.56;113857;1205;34288;-81
2021/09/15 01:11:08;;;;;;;18.10;14.40;;;;;;;13.49;84.33;96921.59;113888;1206;29417;-82
2021/09/15 01:13:40;;;;;;;18.00;13.60;;;;;;;13.50;84.43;96919.98;113871;1204;29843;-82
2021/09/15 01:16:11;;;;;;;19.70;14.60;;;;;;;13.47;84.36;96915.61;113931;1206;24452;-82
2021/09/15 01:18:48;;;;;;;19.20;14.10;;;;;;;13.45;84.57;96917.45;113927;1206;28406;-81
2021/09/15 01:21:19;;;;;;;16.90;13.50;;;;;;;13.47;84.72;96916.14;113886;1205;32687;-81
2021/09/15 01:23:49;;;;;;;17.10;14.00;;;;;;;13.47;84.90;96915.83;113894;1201;36418;-82
2021/09/15 01:26:20;;;;;;;19.00;14.30;;;;;;;13.47;84.76;96913.10;113862;1212;27130;-81
2021/09/15 01:28:51;;;;;;;18.40;14.20;;;;;;;13.48;84.63;96917.41;113879;1206;26615;-81
2021/09/15 01:31:22;;;;;;;17.90;14.20;;;;;;;13.47;84.76;96920.77;113876;1206;29030;-81
2021/09/15 01:33:53;;;;;;;15.90;12.80;;;;;;;13.42;84.55;96920.98;113890;1205;26501;-81
2021/09/15 01:36:24;;;;;;;17.40;13.60;;;;;;;13.37;84.55;96923.74;113855;1205;29870;-80
2021/09/15 01:38:55;;;;;;;17.40;13.60;;;;;;;13.38;84.48;96918.31;113908;1205;33487;-83
2021/09/15 01:41:26;;;;;;;16.80;13.40;;;;;;;13.38;84.41;96917.98;113894;1206;30293;-81
2021/09/15 01:43:57;;;;;;;16.80;14.10;;;;;;;13.41;84.55;96917.73;113870;1206;34025;-81
2021/09/15 01:46:28;;;;;;;16.90;13.20;;;;;;;13.42;84.33;96912.66;113878;1206;34643;-82
2021/09/15 01:48:59;;;;;;;17.30;14.20;;;;;;;13.39;84.07;96913.14;113955;1204;24855;-81
2021/09/15 01:51:30;;;;;;;16.50;12.70;;;;;;;13.36;84.09;96909.74;113927;1207;26955;-82
2021/09/15 01:54:01;;;;;;;17.80;12.80;;;;;;;13.28;83.77;96912.08;113886;1204;27786;-81
2021/09/15 01:56:32;;;;;;;17.00;13.10;;;;;;;13.23;83.76;96911.59;113981;1204;26873;-81
2021/09/15 01:59:04;;;;;;;18.00;13.50;;;;;;;13.24;83.80;96912.80;113962;1204;23927;-81
2021/09/15 02:01:35;;;;;;;16.60;12.90;;;;;;;13.22;83.79;96912.17;113923;1204;24048;-82
2021/09/15 02:04:06;;;;;;;16.60;12.60;;;;;;;13.23;83.91;96911.91;113900;1204;26365;-82
2021/09/15 02:06:38;;;;;;;17.40;12.80;;;;;;;13.20;83.74;96908.75;113937;1206;30255;-82
2021/09/15 02:09:09;;;;;;;16.90;12.50;;;;;;;13.16;83.68;96910.23;113909;1204;25428;-81
2021/09/15 02:11:42;;;;;;;18.00;13.10;;;;;;;13.10;83.80;96909.66;113902;1206;29098;-81
2021/09/15 02:14:14;;;;;;;18.30;13.50;;;;;;;13.08;84.24;96906.74;113986;1206;25741;-82
2021/09/15 02:16:45;;;;;;;17.10;13.70;;;;;;;13.10;84.44;96902.27;114006;1211;24775;-81
2021/09/15 02:19:17;;;;;;;18.50;14.00;;;;;;;13.12;84.58;96899.80;113935;1204;28390;-79
2021/09/15 02:21:48;;;;;;;17.30;13.30;;;;;;;13.13;84.74;96898.07;113929;1205;27602;-80
2021/09/15 02:24:21;;;;;;;17.50;13.90;;;;;;;13.16;84.83;96900.37;113874;1209;30303;-81
2021/09/15 02:26:53;;;;;;;17.90;14.30;;;;;;;13.19;85.05;96900.14;113934;1205;31311;-81
2021/09/15 02:29:24;;;;;;;20.40;14.60;;;;;;;13.26;85.22;96894.30;113861;1204;29288;-81
2021/09/15 02:31:55;;;;;;;18.70;13.80;;;;;;;13.31;85.14;96896.30;113949;1209;25204;-81
2021/09/15 02:34:26;;;;;;;17.40;13.80;;;;;;;13.34;85.08;96896.20;113938;1205;26073;-81
2021/09/15 02:36:57;;;;;;;16.60;13.50;;;;;;;13.36;85.17;96892.17;113921;1204;24381;-82
2021/09/15 02:39:30;;;;;;;18.60;14.40;;;;;;;13.36;84.79;96895.37;113939;1200;33115;-81
2021/09/15 02:42:01;;;;;;;16.70;13.70;;;;;;;13.31;84.70;96894.23;113837;1204;24057;-81
2021/09/15 02:44:32;;;;;;;19.00;14.40;;;;;;;13.28;84.58;96891.98;113908;1206;25419;-82
2021/09/15 02:47:04;;;;;;;19.10;14.20;;;;;;;13.27;84.64;96893.92;113942;1204;29170;-81
2021/09/15 02:49:35;;;;;;;15.70;13.40;;;;;;;13.28;84.70;96892.24;113924;1205;26597;-82
2021/09/15 02:52:07;;;;;;;18.80;13.80;;;;;;;13.25;84.74;96895.48;113937;1205;32456;-82
2021/09/15 02:54:38;;;;;;;17.40;13.40;;;;;;;13.23;85.14;96897.36;113886;1207;29592;-81
2021/09/15 02:57:09;;;;;;;16.80;13.50;;;;;;;13.26;85.48;96893.66;113906;1204;28819;-81
2021/09/15 02:59:40;;;;;;;19.40;14.00;;;;;;;13.30;85.60;96894.41;113926;1204;75801;-81
2021/09/15 03:02:11;;;;;;;18.60;14.80;;;;;;;13.33;85.52;96893.86;113923;1204;27888;-82
2021/09/15 03:04:43;;;;;;;18.50;13.90;;;;;;;13.36;85.45;96894.40;113968;1207;30217;-82
2021/09/15 03:07:14;;;;;;;18.70;14.20;;;;;;;13.40;85.41;96898.15;113995;1204;26920;-82
2021/09/15 03:09:45;;;;;;;20.10;14.40;;;;;;;13.44;85.13;96898.67;113973;1204;30862;-82
2021/09/15 03:12:16;;;;;;;19.40;13.50;;;;;;;13.46;85.08;96895.50;113926;1204;26001;-80
2021/09/15 03:14:47;;;;;;;17.90;12.90;;;;;;;13.47;85.05;96893.92;113796;1205;27078;-80
2021/09/15 03:17:18;;;;;;;17.90;12.20;;;;;;;13.48;84.98;96893.27;113916;1212;83243;-80
2021/09/15 03:19:50;;;;;;;16.20;13.40;;;;;;;13.45;84.98;96896.27;113876;1204;36806;-81
2021/09/15 03:22:21;;;;;;;17.60;13.80;;;;;;;13.36;84.87;96894.73;113927;1204;26701;-82
2021/09/15 03:24:52;;;;;;;16.40;13.70;;;;;;;13.32;84.93;96899.27;113946;1204;30127;-81
2021/09/15 03:27:23;;;;;;;17.10;12.90;;;;;;;13.33;85.28;96896.33;113924;1206;26572;-81
2021/09/15 03:29:54;;;;;;;16.60;12.80;;;;;;;13.38;85.23;96894.77;113922;1204;28206;-82
2021/09/15 03:32:25;;;;;;;16.70;13.00;;;;;;;13.38;85.23;96899.41;113880;1207;29687;-81
2021/09/15 03:34:56;;;;;;;16.30;12.60;;;;;;;13.40;85.25;96900.81;113948;1204;25839;-82
2021/09/15 03:37:27;;;;;;;16.20;13.50;;;;;;;13.44;85.13;96898.35;113942;1204;30443;-82
2021/09/15 03:39:58;;;;;;;17.00;13.30;;;;;;;13.44;85.29;96894.95;113868;1200;50952;-82
2021/09/15 03:42:29;;;;;;;17.80;13.60;;;;;;;13.47;85.33;96892.98;113942;1207;28107;-81
2021/09/15 03:45:00;;;;;;;18.00;13.60;;;;;;;13.48;85.33;96890.71;113894;1204;27670;-81
2021/09/15 03:47:31;;;;;;;16.30;13.20;;;;;;;13.48;85.20;96893.75;113901;1204;26400;-82
2021/09/15 03:50:03;;;;;;;18.60;14.10;;;;;;;13.46;85.30;96894.48;113906;1204;29097;-81
2021/09/15 03:52:34;;;;;;;19.50;13.00;;;;;;;13.42;85.24;96899.87;113877;1207;29385;-82
2021/09/15 03:55:05;;;;;;;16.40;12.80;;;;;;;13.41;85.30;96897.02;113909;1205;27512;-81
2021/09/15 03:57:36;;;;;;;18.30;13.10;;;;;;;13.40;85.36;96901.72;113932;1204;28651;-82
2021/09/15 04:00:10;;;;;;;20.00;13.80;;;;;;;13.41;85.54;96899.58;113929;1205;25453;-81
2021/09/15 04:02:41;;;;;;;17.20;14.00;;;;;;;13.41;85.44;96896.50;113946;1210;27823;-81
2021/09/15 04:05:12;;;;;;;16.20;14.20;;;;;;;13.41;85.34;96899.67;113984;1205;28963;-81
2021/09/15 04:07:43;;;;;;;19.20;13.60;;;;;;;13.43;85.13;96897.62;113950;1204;77573;-80
2021/09/15 04:10:14;;;;;;;17.20;13.40;;;;;;;13.44;85.28;96897.83;113936;1206;26177;-81
2021/09/15 04:12:45;;;;;;;18.20;14.90;;;;;;;13.44;85.55;96897.77;113922;1205;32121;-81
2021/09/15 04:15:17;;;;;;;20.60;14.60;;;;;;;13.46;85.97;96894.10;113891;1204;25345;-81
2021/09/15 04:17:48;;;;;;;20.40;13.60;;;;;;;13.52;86.35;96892.06;113905;1207;27446;-81
2021/09/15 04:20:19;;;;;;;16.40;13.60;;;;;;;13.58;86.43;96889.23;113869;1204;26704;-82
2021/09/15 04:22:50;;;;;;;16.90;13.30;;;;;;;13.63;86.22;96892.30;113860;1205;27733;-80
2021/09/15 04:31:21;;;;;;;17.00;13.50;;;;;;;13.79;85.82;96893.60;113875;1204;28613;-81
2021/09/15 04:33:52;;;;;;;16.10;13.30;;;;;;;13.95;85.57;96890.30;113948;1204;25844;-81
2021/09/15 04:36:24;;;;;;;16.60;13.00;;;;;;;14.08;85.28;96893.59;113900;1204;27656;-80
2021/09/15 04:38:55;;;;;;;17.30;13.20;;;;;;;14.20;85.07;96889.27;113903;1204;28546;-81
2021/09/15 04:41:26;;;;;;;14.30;11.80;;;;;;;14.39;84.82;96890.30;113857;1204;28822;-81
2021/09/15 04:43:57;;;;;;;14.60;12.00;;;;;;;14.73;84.48;96889.11;113748;1205;28249;-83
2021/09/15 04:46:29;;;;;;;16.20;11.10;;;;;;;15.14;83.69;96891.42;113923;1204;29881;-82
2021/09/15 04:49:00;;;;;;;15.40;12.10;;;;;;;15.53;82.65;96888.30;113835;1204;27114;-82
2021/09/15 04:51:31;;;;;;;14.70;11.70;;;;;;;15.89;81.87;96890.27;113863;1205;25773;-82
2021/09/15 04:54:02;;;;;;;14.70;11.40;;;;;;;16.25;80.60;96889.91;113871;1207;25753;-82
2021/09/15 04:56:33;;;;;;;14.20;11.40;;;;;;;16.57;79.92;96886.97;113868;1204;39671;-81
2021/09/15 04:59:04;;;;;;;13.00;10.70;;;;;;;16.95;78.77;96889.78;113899;1204;28003;-81
2021/09/15 05:01:34;;;;;;;13.90;10.50;;;;;;;17.42;78.09;96888.84;113915;1205;25515;-82
2021/09/15 05:04:06;;;;;;;12.60;9.60;;;;;;;17.78;76.95;96889.29;113880;1204;28480;-83
2021/09/15 05:06:37;;;;;;;12.20;9.60;;;;;;;17.86;75.69;96891.86;113916;1204;29630;-82
2021/09/15 05:09:08;;;;;;;13.00;10.00;;;;;;;17.76;74.77;96893.91;113899;1204;25678;-82
2021/09/15 05:11:39;;;;;;;12.60;9.80;;;;;;;17.90;74.72;96896.77;113879;1204;28860;-82
2021/09/15 05:14:10;;;;;;;11.40;9.10;;;;;;;18.33;74.84;96901.29;113891;1204;30455;-81
2021/09/15 05:16:41;;;;;;;11.40;9.50;;;;;;;19.07;74.19;96895.36;113928;1210;25636;-82
2021/09/15 05:19:12;;;;;;;10.40;8.20;;;;;;;19.91;73.20;96895.61;113902;1204;29413;-82
2021/09/15 05:21:43;;;;;;;10.60;8.20;;;;;;;20.63;71.37;96892.77;113935;1200;29984;-82
2021/09/15 05:24:14;;;;;;;10.90;8.60;;;;;;;21.18;69.72;96888.64;114002;1204;28897;-83
2021/09/15 05:26:45;;;;;;;9.80;8.70;;;;;;;21.76;67.82;96893.95;114018;1204;25555;-82
2021/09/15 05:29:16;;;;;;;11.90;8.70;;;;;;;22.10;65.85;96896.34;113934;1207;28533;-82
2021/09/15 05:31:47;;;;;;;9.90;8.30;;;;;;;22.17;63.95;96893.30;113875;1207;24634;-82
2021/09/15 05:34:18;;;;;;;13.50;8.80;;;;;;;22.57;63.68;96890.67;113883;1204;25559;-81
2021/09/15 05:36:50;;;;;;;11.50;8.60;;;;;;;22.92;62.34;96887.98;113946;1207;24751;-80
2021/09/15 05:39:21;;;;;;;10.80;8.60;;;;;;;23.02;59.83;96889.92;113890;1204;28862;-82
2021/09/15 05:41:52;;;;;;;9.50;7.60;;;;;;;23.10;58.99;96893.65;113911;1205;27028;-81
2021/09/15 05:44:23;;;;;;;9.50;7.80;;;;;;;23.15;58.43;96895.23;113825;1210;28430;-83
2021/09/15 05:46:54;;;;;;;12.40;8.10;;;;;;;23.52;58.99;96891.86;113873;1212;27691;-83
2021/09/15 05:49:25;;;;;;;10.10;8.10;;;;;;;24.25;58.61;96887.65;113849;1204;30663;-82
2021/09/15 05:51:56;;;;;;;10.30;7.90;;;;;;;24.85;57.75;96886.02;113855;1204;29807;-82
2021/09/15 05:54:27;;;;;;;11.50;9.10;;;;;;;25.56;55.95;96877.98;113869;1205;29375;-83
2021/09/15 05:56:58;;;;;;;8.40;7.20;;;;;;;26.01;54.74;96880.94;113862;1200;28971;-82
2021/09/15 05:59:30;;;;;;;10.60;8.30;;;;;;;26.15;52.43;96882.63;113868;1204;44860;-82
2021/09/15 06:02:04;;;;;;;8.80;7.20;;;;;;;26.28;51.65;96882.99;113915;1205;30509;-83
2021/09/15 06:04:36;;;;;;;8.50;7.60;;;;;;;26.50;50.93;96881.60;113956;1205;26120;-83
2021/09/15 06:07:11;;;;;;;10.40;8.10;;;;;;;26.52;49.09;96878.42;113914;1204;29007;-84
2021/09/15 06:09:44;;;;;;;9.50;7.60;;;;;;;26.33;48.98;96878.25;113871;1204;27028;-83
2021/09/15 06:12:18;;;;;;;11.00;7.60;;;;;;;26.38;48.80;96877.91;113966;1205;29784;-83
2021/09/15 06:14:50;;;;;;;9.80;7.30;;;;;;;26.71;48.28;96871.67;113908;1204;36194;-83
2021/09/15 06:17:21;;;;;;;7.70;6.80;;;;;;;26.86;48.15;96870.31;113917;1205;29804;-83
2021/09/15 06:22:54;;;;;;;8.80;6.90;;;;;;;28.49;46.90;96857.63;113871;1204;34898;-83
2021/09/15 06:25:27;;;;;;;7.30;6.60;;;;;;;28.99;46.04;96855.05;113862;1204;57394;-83
2021/09/15 06:27:58;;;;;;;8.40;7.00;;;;;;;29.52;45.41;96852.27;113890;1212;57745;-83
2021/09/15 06:30:29;;;;;;;7.50;6.70;;;;;;;29.83;43.78;96845.11;113956;1204;27575;-83
2021/09/15 06:33:01;;;;;;;8.50;6.80;;;;;;;30.08;42.93;96847.18;113907;1204;29810;-83
2021/09/15 06:35:32;;;;;;;7.50;6.70;;;;;;;30.15;42.82;96844.34;113958;1204;25235;-83
2021/09/15 06:38:03;;;;;;;7.30;6.50;;;;;;;30.51;42.92;96855.34;113950;1204;29073;-83
2021/09/15 06:40:34;;;;;;;7.30;6.50;;;;;;;31.15;42.42;96856.11;113940;1204;33134;-83
2021/09/15 06:43:05;;;;;;;7.70;6.70;;;;;;;31.84;41.59;96857.46;113953;1204;27271;-84
2021/09/15 06:45:36;;;;;;;7.80;6.90;;;;;;;32.15;40.42;96855.79;114028;1204;27688;-83
2021/09/15 06:48:08;;;;;;;7.50;6.30;;;;;;;32.44;40.45;96854.13;113988;1210;37407;-83
2021/09/15 06:50:39;;;;;;;8.30;6.50;;;;;;;33.16;40.28;96855.29;113961;1209;26622;-82
2021/09/15 06:53:09;;;;;;;7.60;6.00;;;;;;;33.65;38.75;96859.70;113941;1207;28610;-82
2021/09/15 06:55:40;;;;;;;6.40;5.50;;;;;;;34.04;38.42;96859.83;113991;1207;29349;-82
2021/09/15 06:58:11;;;;;;;9.10;6.60;;;;;;;34.48;37.34;96857.67;114025;1207;26830;-83
2021/09/15 07:00:42;;;;;;;6.30;5.70;;;;;;;34.61;36.74;96858.77;113867;1205;27489;-83
2021/09/15 07:03:13;;;;;;;6.70;5.80;;;;;;;34.84;36.82;96862.02;113953;1205;26291;-83
2021/09/15 07:05:45;;;;;;;7.50;6.70;;;;;;;35.01;35.49;96862.45;113942;1203;27659;-83
2021/09/15 07:08:16;;;;;;;7.30;6.50;;;;;;;33.88;33.74;96859.84;113929;1204;36683;-83
2021/09/15 07:10:47;;;;;;;7.70;6.20;;;;;;;32.82;35.09;96853.05;113794;1201;37677;-82
2021/09/15 07:13:19;;;;;;;7.90;6.50;;;;;;;32.99;35.69;96848.45;113805;1205;27189;-82
2021/09/15 07:15:50;;;;;;;7.10;5.80;;;;;;;33.47;35.32;96848.73;113839;1205;32230;-83
2021/09/15 07:18:21;;;;;;;7.50;6.30;;;;;;;33.87;35.58;96852.41;113796;1207;45952;-83
2021/09/15 07:20:52;;;;;;;7.20;5.30;;;;;;;34.71;34.96;96852.02;113765;1206;32036;-83
2021/09/15 07:23:25;;;;;;;7.70;5.60;;;;;;;35.01;34.35;96850.09;113802;1205;26899;-82
2021/09/15 07:25:56;;;;;;;6.80;5.80;;;;;;;35.24;33.28;96851.36;113825;1206;26533;-83
2021/09/15 07:28:27;;;;;;;9.40;5.80;;;;;;;35.19;32.80;96849.13;113759;1205;27814;-83
2021/09/15 07:30:58;;;;;;;6.70;5.70;;;;;;;35.49;33.79;96847.78;113756;1207;28178;-84
2021/09/15 07:33:32;;;;;;;6.70;5.30;;;;;;;36.30;32.93;96849.59;113782;1206;28208;-84
2021/09/15 07:36:04;;;;;;;6.40;5.40;;;;;;;36.44;32.34;96850.96;113826;1209;29120;-83
2021/09/15 07:38:35;;;;;;;6.20;5.50;;;;;;;36.79;32.31;96847.87;113781;1212;30857;-83
2021/09/15 07:41:08;;;;;;;9.70;5.60;;;;;;;37.26;32.02;96847.08;113791;1207;39873;-83
2021/09/15 07:43:39;;;;;;;6.80;5.60;;;;;;;37.48;30.87;96848.14;113742;1208;44683;-83
2021/09/15 07:46:10;;;;;;;5.70;5.10;;;;;;;37.33;30.26;96848.16;113882;1205;34996;-84
2021/09/15 07:48:41;;;;;;;6.80;5.20;;;;;;;36.60;30.37;96855.19;113879;1209;34014;-84
2021/09/15 07:51:12;;;;;;;12.00;8.20;;;;;;;36.11;30.45;96858.60;113941;1209;27806;-84
2021/09/15 07:53:43;;;;;;;10.10;8.00;;;;;;;35.61;30.77;96857.95;113935;1204;28829;-83
2021/09/15 07:56:14;;;;;;;7.60;6.20;;;;;;;35.16;31.50;96855.75;114011;1212;26167;-84
2021/09/15 07:58:45;;;;;;;10.40;5.70;;;;;;;34.87;31.35;96857.35;113972;1205;27198;-83
2021/09/15 08:01:16;;;;;;;6.00;5.20;;;;;;;34.15;31.81;96856.14;113890;1205;30851;-83
2021/09/15 08:03:47;;;;;;;6.60;5.80;;;;;;;33.70;32.67;96858.80;113859;1205;49976;-82
2021/09/15 08:06:19;;;;;;;6.50;5.80;;;;;;;33.00;32.63;96855.80;113939;1205;25675;-83
2021/09/15 08:08:50;;;;;;;6.30;5.70;;;;;;;31.87;33.40;96858.05;113912;1209;31124;-83
2021/09/15 08:11:21;;;;;;;7.70;5.60;;;;;;;31.04;34.40;96855.45;113868;1201;25341;-83
2021/09/15 08:13:52;;;;;;;7.60;5.40;;;;;;;30.76;35.30;96856.55;113905;1205;26068;-83
2021/09/15 08:16:23;;;;;;;9.10;5.70;;;;;;;30.42;35.53;96853.53;113891;1205;27851;-83
2021/09/15 08:18:54;;;;;;;7.70;5.50;;;;;;;30.31;36.37;96854.55;113924;1205;24312;-83
2021/09/15 08:21:25;;;;;;;7.70;6.10;;;;;;;30.08;36.61;96853.82;113912;1204;31046;-84
2021/09/15 08:24:02;;;;;;;8.70;5.80;;;;;;;29.53;36.98;96847.51;113908;1209;29026;-84
2021/09/15 08:26:33;;;;;;;8.00;5.80;;;;;;;29.10;37.74;96848.32;113922;1205;28342;-84
2021/09/15 08:29:04;;;;;;;6.20;5.10;;;;;;;28.89;38.43;96847.57;113846;1212;28111;-83
2021/09/15 08:31:35;;;;;;;7.50;5.50;;;;;;;28.79;38.39;96844.76;113911;1212;32324;-84
2021/09/15 08:34:07;;;;;;;8.10;6.30;;;;;;;28.37;38.56;96848.17;113816;1209;26926;-84
2021/09/15 08:36:38;;;;;;;7.20;5.90;;;;;;;28.00;38.93;96849.89;113918;1205;59710;-83
2021/09/15 08:39:09;;;;;;;9.50;6.00;;;;;;;27.62;39.88;96847.73;113886;1205;28160;-84
2021/09/15 08:41:40;;;;;;;8.60;6.10;;;;;;;27.64;40.06;96847.70;113894;1208;28726;-84
2021/09/15 08:44:12;;;;;;;6.50;5.40;;;;;;;27.27;40.30;96848.98;113919;1209;29976;-84
2021/09/15 08:46:45;;;;;;;6.80;5.40;;;;;;;26.82;41.00;96850.38;114026;1205;29769;-84
2021/09/15 08:49:19;;;;;;;6.70;5.80;;;;;;;26.62;41.57;96845.57;113867;1209;25398;-84
2021/09/15 08:51:51;;;;;;;8.40;6.30;;;;;;;26.49;42.38;96845.16;113943;1212;27500;-83
2021/09/15 08:54:23;;;;;;;7.80;6.40;;;;;;;26.42;42.41;96845.33;113954;1209;26750;-84
2021/09/15 08:56:54;;;;;;;10.00;5.90;;;;;;;26.36;43.12;96845.35;113923;1209;29333;-84
2021/09/15 08:59:25;;;;;;;8.10;5.80;;;;;;;26.44;43.52;96844.17;113890;1207;27146;-84
2021/09/15 09:02:10;;;;;;;6.70;6.00;;;;;;;26.38;43.24;96836.66;113930;1210;25227;-84
2021/09/15 09:04:55;;;;;;;8.90;5.70;;;;;;;26.32;43.59;96839.84;113940;1205;37185;-84
2021/09/15 09:07:27;;;;;;;6.70;5.70;;;;;;;26.19;43.11;96838.81;113884;1205;53651;-84
2021/09/15 09:10:00;;;;;;;8.70;6.00;;;;;;;25.94;43.76;96834.07;113906;1205;30297;-84
2021/09/15 09:12:32;;;;;;;6.80;5.70;;;;;;;25.86;43.95;96834.59;113895;1205;52630;-83
2021/09/15 09:15:23;;;;;;;7.30;5.90;;;;;;;25.88;43.82;96834.48;113950;1205;27121;-84
2021/09/15 09:17:58;;;;;;;7.30;5.50;;;;;;;25.72;44.43;96826.84;113967;1205;27783;-85
2021/09/15 09:20:32;;;;;;;6.80;5.00;;;;;;;25.66;43.93;96826.77;113921;1209;39766;-84
2021/09/15 09:23:14;;;;;;;6.90;5.10;;;;;;;25.43;43.59;96824.31;113951;1205;29782;-84
2021/09/15 09:25:47;;;;;;;6.90;4.80;;;;;;;25.13;44.02;96826.17;113968;1208;28207;-84
2021/09/15 09:28:25;;;;;;;5.50;4.70;;;;;;;25.12;44.24;96824.30;113957;1205;28297;-83
2021/09/15 09:30:57;;;;;;;5.50;4.90;;;;;;;25.14;44.22;96821.77;113907;1204;26613;-84
2021/09/15 09:33:29;;;;;;;5.80;4.70;;;;;;;24.90;44.54;96818.47;113880;1205;31098;-83
2021/09/15 09:36:05;;;;;;;7.70;5.60;;;;;;;24.80;45.18;96814.23;113920;1212;27547;-84
2021/09/15 09:38:38;;;;;;;5.90;5.00;;;;;;;24.93;45.32;96809.52;113988;1205;27256;-84
2021/09/15 09:41:13;;;;;;;6.10;4.70;;;;;;;25.03;45.04;96804.48;113906;1205;30679;-85
2021/09/15 09:43:47;;;;;;;6.10;4.90;;;;;;;24.93;44.83;96805.66;113954;1208;30055;-84
2021/09/15 09:46:30;;;;;;;6.80;4.80;;;;;;;24.78;45.09;96803.34;113892;1209;31597;-83
2021/09/15 09:49:04;;;;;;;6.50;5.00;;;;;;;24.88;45.42;96805.27;113735;1206;31303;-85
2021/09/15 09:51:37;;;;;;;7.50;4.80;;;;;;;24.83;45.15;96800.70;113805;1202;30694;-84
2021/09/15 09:54:24;;;;;;;6.60;4.70;;;;;;;24.85;45.33;96804.15;113810;1205;26237;-84
2021/09/15 09:56:58;;;;;;;6.50;4.70;;;;;;;24.95;45.59;96804.34;113786;1211;29354;-85
2021/09/15 09:59:31;;;;;;;7.50;4.90;;;;;;;25.01;45.43;96798.09;113763;1205;30718;-85
2021/09/15 10:02:04;;;;;;;7.20;5.00;;;;;;;24.85;44.85;96797.94;113779;1208;27754;-84
2021/09/15 10:04:37;;;;;;;6.30;4.80;;;;;;;24.65;45.03;96797.73;113815;1206;31904;-84
2021/09/15 10:07:08;;;;;;;5.00;4.50;;;;;;;24.73;45.18;96792.27;113765;1210;33540;-84
2021/09/15 10:09:40;;;;;;;6.00;4.70;;;;;;;24.81;45.10;96793.77;113758;1209;29038;-84
2021/09/15 10:12:12;;;;;;;5.30;4.70;;;;;;;24.54;45.10;96792.23;113734;1209;29003;-85
2021/09/15 10:14:43;;;;;;;4.80;4.30;;;;;;;24.41;45.65;96789.39;113784;1209;28978;-84
2021/09/15 10:17:23;;;;;;;6.10;4.30;;;;;;;24.54;46.80;96789.73;113818;1198;30562;-84
2021/09/15 10:19:57;;;;;;;6.00;5.00;;;;;;;24.73;46.34;96783.67;113765;1205;28229;-84
2021/09/15 10:22:32;;;;;;;6.50;4.20;;;;;;;24.68;46.06;96781.59;113764;1206;34208;-84
2021/09/15 10:25:05;;;;;;;7.40;4.70;;;;;;;24.79;46.88;96783.35;113787;1205;28550;-81
2021/09/15 10:28:01;;;;;;;6.20;4.50;;;;;;;24.88;46.37;96781.31;113802;1205;26354;-81
2021/09/15 10:30:50;;;;;;;5.90;4.60;;;;;;;24.86;46.60;96779.11;113724;1212;31014;-83
2021/09/15 10:33:47;;;;;;;5.70;4.30;;;;;;;24.95;47.13;96780.88;113795;1201;29007;-81
2021/09/15 10:36:40;;;;;;;5.90;4.50;;;;;;;25.06;47.05;96781.84;113602;1209;47015;-81
2021/09/15 10:39:22;;;;;;;7.00;4.90;;;;;;;24.99;46.78;96780.55;113830;1207;29454;-81
2021/09/15 10:42:04;;;;;;;6.80;4.90;;;;;;;24.91;46.62;96779.12;113668;1201;31181;-81
2021/09/15 10:44:35;;;;;;;7.50;5.00;;;;;;;24.94;47.24;96780.39;113790;1205;28176;-82
2021/09/15 10:47:18;;;;;;;6.80;4.90;;;;;;;25.00;47.33;96781.80;113788;1206;36670;-83
2021/09/15 10:49:49;;;;;;;7.80;5.20;;;;;;;25.10;47.53;96778.48;113864;1205;47349;-81
2021/09/15 10:52:28;;;;;;;6.40;4.90;;;;;;;25.06;47.13;96776.16;113758;1210;43448;-81
2021/09/15 10:55:01;;;;;;;6.50;5.10;;;;;;;25.11;47.82;96771.04;113830;1211;49857;-81
2021/09/15 10:57:40;;;;;;;8.00;5.30;;;;;;;25.16;47.36;96767.52;113931;1205;55758;-82
2021/09/15 11:00:29;;;;;;;8.20;5.20;;;;;;;25.24;47.39;96766.16;114035;1209;59579;-82
2021/09/15 11:03:25;;;;;;;7.70;5.50;;;;;;;25.14;46.47;96765.41;114307;1205;26510;-83
2021/09/15 11:05:57;;;;;;;7.80;5.40;;;;;;;24.90;46.58;96763.20;114242;1205;28808;-82
2021/09/15 11:08:41;;;;;;;6.60;5.70;;;;;;;24.88;47.23;96758.46;114215;1205;57169;-82
2021/09/15 11:11:33;;;;;;;7.90;6.10;;;;;;;24.92;48.08;96754.23;114271;1202;54689;-82
2021/09/15 11:14:07;;;;;;;8.60;5.60;;;;;;;25.05;48.62;96746.94;114059;1205;56216;-82
2021/09/15 11:16:41;;;;;;;7.60;5.70;;;;;;;25.14;48.09;96746.27;113740;1205;54210;-83
2021/09/15 11:19:13;;;;;;;7.70;5.90;;;;;;;25.25;48.56;96745.08;113809;1206;37708;-82
2021/09/15 11:21:49;;;;;;;7.20;5.70;;;;;;;25.32;48.81;96747.79;113853;1205;30495;-82
2021/09/15 11:24:24;;;;;;;8.40;5.80;;;;;;;25.36;48.92;96749.09;113794;1205;54805;-82
2021/09/15 11:26:58;;;;;;;7.60;5.50;;;;;;;25.40;48.63;96748.81;113764;1201;52104;-81
2021/09/15 11:29:41;;;;;;;7.40;5.60;;;;;;;25.38;48.71;96748.48;113771;1206;52379;-81
2021/09/15 11:32:14;;;;;;;8.10;5.00;;;;;;;25.43;48.43;96746.98;113843;1206;57214;-82
2021/09/15 11:34:47;;;;;;;7.30;5.30;;;;;;;25.52;48.44;96748.41;113895;1205;28646;-82
2021/09/15 11:37:24;;;;;;;8.50;5.20;;;;;;;25.52;47.78;96743.28;113773;1209;30630;-79
2021/09/15 11:40:00;;;;;;;7.40;4.80;;;;;;;25.51;48.08;96739.16;113743;1206;34175;-81
2021/09/15 11:42:33;;;;;;;6.40;5.30;;;;;;;25.46;47.89;96737.16;113697;1205;38994;-82
2021/09/15 11:45:16;;;;;;;8.20;5.10;;;;;;;25.43;48.29;96730.93;113770;1205;30115;-81
2021/09/15 11:47:48;;;;;;;7.30;5.60;;;;;;;25.48;49.12;96730.21;108098;1201;5294071;-81
2021/09/15 11:50:22;;;;;;;9.30;6.00;;;;;;;25.56;49.72;96730.44;113746;1209;34687;-81